createdAt,value
2022-12-14T00:01:30.468Z,97136.34
2022-12-14T00:03:57.853Z,97137.41
2022-12-14T00:06:27.458Z,97133.34
2022-12-14T00:08:57.396Z,97122.44
2022-12-14T00:11:25.067Z,97114.19
2022-12-14T00:13:57.799Z,97117.47
2022-12-14T00:16:29.982Z,97112.50
2022-12-14T00:18:58.757Z,97113.53
2022-12-14T00:21:26.951Z,97110.84
2022-12-14T00:23:55.389Z,97104.53
2022-12-14T00:26:32.765Z,97084.59
2022-12-14T00:29:01.806Z,97092.16
2022-12-14T00:31:32.271Z,97092.84
2022-12-14T00:34:01.087Z,97098.44
2022-12-14T00:36:31.312Z,97085.66
2022-12-14T00:38:58.948Z,97082.91
2022-12-14T00:41:26.346Z,97074.09
2022-12-14T00:43:53.703Z,97068.47
2022-12-14T00:46:21.121Z,97063.16
2022-12-14T00:48:48.696Z,97054.41
2022-12-14T00:51:16.108Z,97049.38
2022-12-14T00:53:44.934Z,97045.88
2022-12-14T00:56:12.478Z,97040.16
2022-12-14T00:58:39.875Z,97040.09
2022-12-14T01:01:12.291Z,97040.84
2022-12-14T01:03:39.947Z,97044.28
2022-12-14T01:06:12.970Z,97058.41
2022-12-14T01:08:40.275Z,97057.00
2022-12-14T01:11:08.830Z,97059.84
2022-12-14T01:13:37.373Z,97058.59
2022-12-14T01:16:10.960Z,97058.13
2022-12-14T01:18:39.744Z,97058.97
2022-12-14T01:21:12.336Z,97073.44
2022-12-14T01:23:39.956Z,97059.59
2022-12-14T01:26:07.392Z,97053.94
2022-12-14T01:28:35.016Z,97054.78
2022-12-14T01:31:13.156Z,97049.31
2022-12-14T01:33:40.754Z,97061.72
2022-12-14T01:36:15.925Z,97063.53
2022-12-14T01:38:43.719Z,97059.50
2022-12-14T01:41:22.622Z,97043.38
2022-12-14T01:43:55.837Z,97045.47
2022-12-14T01:46:26.354Z,97044.59
2022-12-14T01:48:56.507Z,97056.22
2022-12-14T01:51:25.396Z,97065.53
2022-12-14T01:53:53.196Z,97053.84
2022-12-14T01:56:20.554Z,97057.00
2022-12-14T01:58:47.927Z,97049.81
2022-12-14T02:01:16.109Z,97037.09
2022-12-14T02:03:47.568Z,97032.69
2022-12-14T02:06:29.233Z,97030.94
2022-12-14T02:08:57.827Z,97029.88
2022-12-14T02:11:49.379Z,97029.88
2022-12-14T02:14:16.771Z,97023.13
2022-12-14T02:16:44.222Z,97019.59
2022-12-14T02:19:11.698Z,97018.47
2022-12-14T02:21:44.964Z,97016.56
2022-12-14T02:24:34.321Z,97016.03
2022-12-14T02:27:23.435Z,97022.75
2022-12-14T02:30:08.005Z,97012.69
2022-12-14T02:32:54.232Z,97003.47
2022-12-14T02:36:01.992Z,97011.56
2022-12-14T02:38:47.767Z,97002.03
2022-12-14T02:41:23.199Z,96993.13
2022-12-14T02:44:06.989Z,96980.25
2022-12-14T02:47:16.079Z,96968.22
2022-12-14T02:49:52.629Z,96962.97
2022-12-14T02:52:34.902Z,96976.09
2022-12-14T02:55:10.166Z,96985.56
2022-12-14T02:57:59.090Z,96979.19
2022-12-14T03:00:29.357Z,96983.59
2022-12-14T03:02:57.238Z,96975.00
2022-12-14T03:05:24.617Z,96979.56
2022-12-14T03:07:55.020Z,96978.41
2022-12-14T03:10:25.185Z,96993.25
2022-12-14T03:13:15.207Z,96986.00
2022-12-14T03:15:45.519Z,96990.25
2022-12-14T03:18:15.387Z,96984.81
2022-12-14T03:20:44.954Z,96980.50
2022-12-14T03:23:25.285Z,96971.94
2022-12-14T03:26:18.137Z,96965.69
2022-12-14T03:29:08.267Z,96959.09
2022-12-14T03:31:49.123Z,96964.09
2022-12-14T03:34:17.958Z,96953.22
2022-12-14T03:36:50.815Z,96952.38
2022-12-14T03:39:28.851Z,96956.28
2022-12-14T03:42:25.700Z,96947.50
2022-12-14T03:45:14.312Z,96946.97
2022-12-14T03:47:50.760Z,96944.47
2022-12-14T03:50:25.303Z,96934.50
2022-12-14T03:52:58.432Z,96927.34
2022-12-14T03:55:37.320Z,96926.34
2022-12-14T03:58:13.481Z,96910.22
2022-12-14T04:01:06.129Z,96913.03
2022-12-14T04:04:04.981Z,96911.97
2022-12-14T04:06:41.324Z,96901.25
2022-12-14T04:09:20.939Z,96900.91
2022-12-14T04:12:13.932Z,96902.75
2022-12-14T04:15:08.710Z,96893.31
2022-12-14T04:17:56.560Z,96888.50
2022-12-14T04:20:26.976Z,96876.63
2022-12-14T04:22:59.556Z,96878.91
2022-12-14T04:25:52.111Z,96882.72
2022-12-14T04:28:41.097Z,96875.03
2022-12-14T04:31:14.919Z,96866.69
2022-12-14T04:33:56.595Z,96863.19
2022-12-14T04:36:43.896Z,96861.84
2022-12-14T04:39:17.767Z,96860.84
2022-12-14T04:41:49.587Z,96852.94
2022-12-14T04:44:25.123Z,96844.31
2022-12-14T04:46:54.315Z,96850.25
2022-12-14T04:49:40.437Z,96861.03
2022-12-14T04:52:15.757Z,96854.03
2022-12-14T04:55:04.951Z,96856.69
2022-12-14T04:57:38.808Z,96858.59
2022-12-14T05:00:06.751Z,96863.69
2022-12-14T05:02:55.834Z,96851.59
2022-12-14T05:05:31.293Z,96847.16
2022-12-14T05:08:10.582Z,96856.59
2022-12-14T05:10:41.989Z,96854.25
2022-12-14T05:13:18.958Z,96851.84
2022-12-14T05:15:54.749Z,96844.56
2022-12-14T05:18:22.351Z,96855.78
2022-12-14T05:20:50.112Z,96837.56
2022-12-14T05:23:18.032Z,96833.38
2022-12-14T05:25:45.435Z,96838.38
2022-12-14T05:28:16.585Z,96829.78
2022-12-14T05:30:49.093Z,96828.38
2022-12-14T05:33:20.749Z,96823.19
2022-12-14T05:35:48.216Z,96814.03
2022-12-14T05:38:15.549Z,96810.66
2022-12-14T05:40:42.855Z,96816.72
2022-12-14T05:43:12.300Z,96808.78
2022-12-14T05:45:39.730Z,96801.19
2022-12-14T05:48:07.246Z,96792.72
2022-12-14T05:50:34.607Z,96799.56
2022-12-14T05:53:02.400Z,96801.31
2022-12-14T05:55:29.925Z,96794.13
2022-12-14T05:57:57.317Z,96799.91
2022-12-14T06:00:24.774Z,96796.06
2022-12-14T06:02:52.175Z,96796.81
2022-12-14T06:05:19.639Z,96789.97
2022-12-14T06:07:46.941Z,96784.22
2022-12-14T06:10:14.420Z,96786.22
2022-12-14T06:12:41.799Z,96779.78
2022-12-14T06:15:09.485Z,96780.38
2022-12-14T06:17:37.544Z,96784.31
2022-12-14T06:20:05.308Z,96781.84
2022-12-14T06:22:32.627Z,96782.53
2022-12-14T06:24:59.968Z,96775.66
2022-12-14T06:27:27.303Z,96774.00
2022-12-14T06:29:54.651Z,96783.88
2022-12-14T06:32:22.412Z,96775.59
2022-12-14T06:34:49.815Z,96777.59
2022-12-14T06:37:17.140Z,96775.28
2022-12-14T06:39:45.709Z,96779.38
2022-12-14T06:42:20.290Z,96766.56
2022-12-14T06:44:47.656Z,96761.50
2022-12-14T06:47:15.075Z,96768.50
2022-12-14T06:49:42.396Z,96762.41
2022-12-14T06:52:10.556Z,96755.50
2022-12-14T06:54:37.906Z,96753.38
2022-12-14T06:57:05.219Z,96756.81
2022-12-14T06:59:32.578Z,96750.63
2022-12-14T07:02:00.057Z,96746.28
2022-12-14T07:04:27.912Z,96746.53
2022-12-14T07:06:55.260Z,96745.78
2022-12-14T07:09:22.563Z,96733.97
2022-12-14T07:11:51.544Z,96730.16
2022-12-14T07:14:19.135Z,96722.03
2022-12-14T07:16:48.691Z,96718.06
2022-12-14T07:19:16.838Z,96711.59
2022-12-14T07:21:44.254Z,96709.44
2022-12-14T07:24:11.599Z,96708.84
2022-12-14T07:26:38.948Z,96721.22
2022-12-14T07:29:06.647Z,96717.03
2022-12-14T07:31:34.144Z,96696.88
2022-12-14T07:34:01.573Z,96679.63
2022-12-14T07:36:30.000Z,96674.19
2022-12-14T07:38:57.550Z,96663.28
2022-12-14T07:41:26.937Z,96659.59
2022-12-14T07:43:55.523Z,96661.78
2022-12-14T07:46:25.145Z,96662.25
2022-12-14T07:48:54.791Z,96651.81
2022-12-14T07:51:24.424Z,96652.13
2022-12-14T07:53:52.219Z,96659.31
2022-12-14T07:56:40.054Z,96674.31
2022-12-14T07:59:09.675Z,96687.38
2022-12-14T08:01:37.815Z,96683.53
2022-12-14T08:04:11.171Z,96681.91
2022-12-14T08:06:39.318Z,96682.22
2022-12-14T08:09:07.741Z,96680.13
2022-12-14T08:11:35.340Z,96666.78
2022-12-14T08:14:08.420Z,96648.50
2022-12-14T08:16:35.828Z,96646.22
2022-12-14T08:19:03.330Z,96634.44
2022-12-14T08:21:30.938Z,96646.56
2022-12-14T08:23:58.866Z,96647.69
2022-12-14T08:26:31.664Z,96649.94
2022-12-14T08:29:00.754Z,96656.78
2022-12-14T08:31:28.586Z,96659.34
2022-12-14T08:33:56.441Z,96665.84
2022-12-14T08:36:33.133Z,96677.88
2022-12-14T08:39:03.599Z,96672.34
2022-12-14T08:41:31.020Z,96673.06
2022-12-14T08:43:59.997Z,96667.16
2022-12-14T08:46:29.535Z,96662.31
2022-12-14T08:48:57.579Z,96650.22
2022-12-14T08:51:25.951Z,96649.19
2022-12-14T08:53:54.178Z,96649.00
2022-12-14T08:56:23.874Z,96649.25
2022-12-14T08:58:51.690Z,96650.84
2022-12-14T09:01:30.315Z,96651.03
2022-12-14T09:04:04.846Z,96653.63
2022-12-14T09:06:35.129Z,96644.28
2022-12-14T09:09:02.701Z,96646.94
2022-12-14T09:11:30.073Z,96643.78
2022-12-14T09:13:58.055Z,96649.97
2022-12-14T09:16:26.351Z,96650.25
2022-12-14T09:18:54.656Z,96641.75
2022-12-14T09:21:22.308Z,96632.53
2022-12-14T09:23:55.592Z,96628.25
2022-12-14T09:26:26.592Z,96631.03
2022-12-14T09:28:55.396Z,96638.88
2022-12-14T09:31:25.147Z,96630.84
2022-12-14T09:33:52.853Z,96623.53
2022-12-14T09:36:22.336Z,96628.63
2022-12-14T09:38:52.268Z,96613.25
2022-12-14T09:41:35.041Z,96608.44
2022-12-14T09:44:14.693Z,96606.69
2022-12-14T09:47:08.635Z,96591.41
2022-12-14T09:50:05.093Z,96602.25
2022-12-14T09:52:41.134Z,96594.75
2022-12-14T09:55:20.732Z,96596.22
2022-12-14T09:57:51.164Z,96596.03
2022-12-14T10:00:19.985Z,96594.06
2022-12-14T10:03:33.126Z,96593.91
2022-12-14T10:06:30.862Z,96592.03
2022-12-14T10:09:02.946Z,96588.59
2022-12-14T10:12:07.393Z,96596.19
2022-12-14T10:15:02.050Z,96600.81
2022-12-14T10:17:36.046Z,96596.44
2022-12-14T10:20:16.990Z,96595.81
2022-12-14T10:22:46.836Z,96592.13
2022-12-14T10:25:17.096Z,96595.25
2022-12-14T10:30:40.496Z,96580.78
2022-12-14T10:33:26.859Z,96576.63
2022-12-14T10:35:56.516Z,96571.09
2022-12-14T10:38:39.155Z,96566.72
2022-12-14T10:41:23.408Z,96564.63
2022-12-14T10:44:19.436Z,96564.91
2022-12-14T10:47:12.167Z,96560.53
2022-12-14T10:49:54.888Z,96557.16
2022-12-14T10:52:25.860Z,96565.22
2022-12-14T10:55:14.094Z,96561.25
2022-12-14T10:57:41.616Z,96552.94
2022-12-14T11:00:23.181Z,96539.13
2022-12-14T11:02:57.465Z,96540.34
2022-12-14T11:05:41.509Z,96537.91
2022-12-14T11:08:09.249Z,96532.28
2022-12-14T11:10:40.825Z,96534.91
2022-12-14T11:13:17.402Z,96531.22
2022-12-14T11:15:46.476Z,96535.22
2022-12-14T11:18:16.726Z,96535.25
2022-12-14T11:20:56.591Z,96532.13
2022-12-14T11:23:37.931Z,96545.94
2022-12-14T11:26:15.418Z,96540.84
2022-12-14T11:28:59.072Z,96547.00
2022-12-14T11:31:38.116Z,96544.47
2022-12-14T11:34:07.275Z,96555.41
2022-12-14T11:36:41.699Z,96547.09
2022-12-14T11:39:15.440Z,96545.63
2022-12-14T11:41:46.940Z,96543.66
2022-12-14T11:44:17.393Z,96545.94
2022-12-14T11:46:46.004Z,96550.91
2022-12-14T11:49:43.102Z,96547.69
2022-12-14T11:52:22.413Z,96543.13
2022-12-14T11:54:52.719Z,96542.47
2022-12-14T11:57:26.033Z,96535.31
2022-12-14T11:59:59.582Z,96530.19
2022-12-14T12:02:38.612Z,96528.03
2022-12-14T12:05:16.344Z,96540.00
2022-12-14T12:07:49.285Z,96533.66
2022-12-14T12:10:26.680Z,96538.97
2022-12-14T12:13:02.662Z,96530.94
2022-12-14T12:15:41.563Z,96528.44
2022-12-14T12:18:18.440Z,96529.84
2022-12-14T12:20:58.037Z,96529.56
2022-12-14T12:23:48.439Z,96532.25
2022-12-14T12:26:23.954Z,96531.22
2022-12-14T12:29:06.942Z,96534.03
2022-12-14T12:31:40.853Z,96529.34
2022-12-14T12:34:19.772Z,96535.50
2022-12-14T12:37:24.142Z,96536.22
2022-12-14T12:39:35.991Z,96535.97
2022-12-14T12:42:48.584Z,96532.88
2022-12-14T12:45:35.575Z,96541.63
2022-12-14T12:48:20.944Z,96541.97
2022-12-14T12:50:51.241Z,96533.53
2022-12-14T12:53:53.832Z,96535.38
2022-12-14T12:56:24.115Z,96543.63
2022-12-14T12:58:53.083Z,96555.38
2022-12-14T13:01:29.521Z,96555.19
2022-12-14T13:04:01.964Z,96552.81
2022-12-14T13:06:44.764Z,96561.44
2022-12-14T13:09:43.326Z,96556.84
2022-12-14T13:12:37.169Z,96565.47
2022-12-14T13:15:13.668Z,96573.38
2022-12-14T13:17:46.782Z,96575.56
2022-12-14T13:20:22.970Z,96571.00
2022-12-14T13:22:50.836Z,96581.41
2022-12-14T13:25:43.081Z,96580.47
2022-12-14T13:28:16.018Z,96579.81
2022-12-14T13:31:07.729Z,96583.16
2022-12-14T13:33:54.385Z,96577.13
2022-12-14T13:37:04.433Z,96572.97
2022-12-14T13:39:37.534Z,96562.16
2022-12-14T13:42:18.855Z,96566.22
2022-12-14T13:44:59.085Z,96562.47
2022-12-14T13:47:31.791Z,96565.28
2022-12-14T13:52:49.516Z,96564.66
2022-12-14T13:55:35.789Z,96578.56
2022-12-14T13:58:41.856Z,96573.69
2022-12-14T14:01:47.757Z,96588.66
2022-12-14T14:04:19.575Z,96586.59
2022-12-14T14:06:51.736Z,96585.13
2022-12-14T14:09:46.999Z,96584.22
2022-12-14T14:12:33.433Z,96596.06
2022-12-14T14:15:28.215Z,96590.66
2022-12-14T14:17:58.308Z,96608.25
2022-12-14T14:20:41.040Z,96612.78
2022-12-14T14:23:14.582Z,96610.09
2022-12-14T14:25:48.638Z,96611.81
2022-12-14T14:28:23.031Z,96608.63
2022-12-14T14:30:53.415Z,96614.00
2022-12-14T14:33:48.431Z,96616.06
2022-12-14T14:36:26.891Z,96615.69
2022-12-14T14:38:56.047Z,96622.63
2022-12-14T14:41:44.873Z,96629.25
2022-12-14T14:44:36.588Z,96629.91
2022-12-14T14:47:12.106Z,96632.97
2022-12-14T14:49:41.600Z,96630.53
2022-12-14T14:52:40.006Z,96649.06
2022-12-14T14:55:52.096Z,96650.88
2022-12-14T14:58:28.070Z,96658.66
2022-12-14T15:01:06.817Z,96670.09
2022-12-14T15:04:04.726Z,96666.41
2022-12-14T15:06:40.389Z,96677.44
2022-12-14T15:09:20.597Z,96685.94
2022-12-14T15:11:51.890Z,96688.47
2022-12-14T15:14:34.966Z,96699.88
2022-12-14T15:17:22.001Z,96716.97
2022-12-14T15:19:56.616Z,96720.47
2022-12-14T15:22:30.646Z,96727.63
2022-12-14T15:25:02.048Z,96720.59
2022-12-14T15:27:39.710Z,96733.44
2022-12-14T15:30:13.843Z,96739.59
2022-12-14T15:32:47.675Z,96745.88
2022-12-14T15:35:18.813Z,96754.41
2022-12-14T15:37:56.433Z,96754.34
2022-12-14T15:40:30.467Z,96755.34
2022-12-14T15:43:00.622Z,96754.69
2022-12-14T15:45:32.121Z,96767.19
2022-12-14T15:48:30.836Z,96760.91
2022-12-14T15:51:07.108Z,96764.06
2022-12-14T15:53:37.283Z,96760.63
2022-12-14T15:56:14.076Z,96765.81
2022-12-14T15:58:41.880Z,96783.41
2022-12-14T16:01:22.299Z,96789.97
2022-12-14T16:04:10.925Z,96799.63
2022-12-14T16:06:40.887Z,96803.13
2022-12-14T16:09:13.525Z,96800.97
2022-12-14T16:11:42.163Z,96795.50
2022-12-14T16:14:22.272Z,96800.41
2022-12-14T16:16:49.917Z,96811.34
2022-12-14T16:19:27.927Z,96816.47
2022-12-14T16:22:24.765Z,96822.41
2022-12-14T16:25:21.404Z,96817.84
2022-12-14T16:27:50.571Z,96817.66
2022-12-14T16:30:22.759Z,96823.69
2022-12-14T16:32:52.682Z,96826.56
2022-12-14T16:35:26.519Z,96825.97
2022-12-14T16:37:57.971Z,96828.56
2022-12-14T16:40:35.117Z,96826.84
2022-12-14T16:43:04.096Z,96821.16
2022-12-14T16:45:45.211Z,96830.03
2022-12-14T16:48:22.106Z,96832.47
2022-12-14T16:51:01.803Z,96836.53
2022-12-14T16:53:32.159Z,96842.25
2022-12-14T16:56:07.192Z,96849.44
2022-12-14T16:58:36.790Z,96847.44
2022-12-14T17:01:06.602Z,96848.28
2022-12-14T17:03:34.833Z,96855.56
2022-12-14T17:06:05.536Z,96858.75
2022-12-14T17:08:34.204Z,96850.63
2022-12-14T17:11:02.320Z,96860.09
2022-12-14T17:13:30.261Z,96864.69
2022-12-14T17:16:06.262Z,96862.69
2022-12-14T17:18:37.593Z,96873.22
2022-12-14T17:21:06.803Z,96881.50
2022-12-14T17:23:40.289Z,96881.00
2022-12-14T17:26:09.395Z,96892.13
2022-12-14T17:28:36.724Z,96903.25
2022-12-14T17:31:04.320Z,96903.25
2022-12-14T17:33:32.450Z,96902.50
2022-12-14T17:36:00.138Z,96906.41
2022-12-14T17:38:27.521Z,96907.09
2022-12-14T17:40:55.893Z,96903.91
2022-12-14T17:43:26.725Z,96902.00
2022-12-14T17:45:54.836Z,96904.25
2022-12-14T17:48:22.378Z,96905.00
2022-12-14T17:50:50.699Z,96906.44
2022-12-14T17:53:20.805Z,96907.59
2022-12-14T17:55:48.452Z,96909.34
2022-12-14T17:58:16.674Z,96902.56
2022-12-14T18:01:03.191Z,96904.59
2022-12-14T18:03:36.062Z,96911.94
2022-12-14T18:06:04.697Z,96918.56
2022-12-14T18:08:32.084Z,96916.94
2022-12-14T18:11:02.976Z,96925.31
2022-12-14T18:13:34.304Z,96922.31
2022-12-14T18:16:02.005Z,96923.25
2022-12-14T18:18:29.636Z,96928.00
2022-12-14T18:21:00.460Z,96918.50
2022-12-14T18:23:28.818Z,96924.06
2022-12-14T18:26:00.627Z,96937.72
2022-12-14T18:28:30.133Z,96943.97
2022-12-14T18:31:02.215Z,96948.22
2022-12-14T18:33:30.092Z,96938.28
2022-12-14T18:35:58.136Z,96940.72
2022-12-14T18:38:26.119Z,96954.34
2022-12-14T18:40:55.196Z,96954.09
2022-12-14T18:43:25.059Z,96941.97
2022-12-14T18:45:53.856Z,96946.47
2022-12-14T18:48:22.298Z,96948.41
2022-12-14T18:50:50.373Z,96945.88
2022-12-14T18:53:19.808Z,96960.53
2022-12-14T18:55:48.045Z,96964.38
2022-12-14T18:58:17.642Z,96954.84
2022-12-14T19:00:45.765Z,96956.78
2022-12-14T19:03:15.214Z,96948.47
2022-12-14T19:05:42.914Z,96946.91
2022-12-14T19:08:11.491Z,96963.44
2022-12-14T19:10:41.958Z,96966.63
2022-12-14T19:13:21.761Z,96968.06
2022-12-14T19:15:52.873Z,96972.25
2022-12-14T19:18:20.610Z,96966.56
2022-12-14T19:20:49.365Z,96969.91
2022-12-14T19:23:18.749Z,96976.94
2022-12-14T19:25:46.680Z,96988.88
2022-12-14T19:28:31.340Z,96984.03
2022-12-14T19:31:00.898Z,97001.00
2022-12-14T19:33:29.164Z,96988.31
2022-12-14T19:35:56.750Z,96975.50
2022-12-14T19:38:24.180Z,96990.97
2022-12-14T19:41:12.346Z,96985.47
2022-12-14T19:43:39.793Z,96994.06
2022-12-14T19:46:08.865Z,96994.00
2022-12-14T19:48:36.717Z,96985.72
2022-12-14T19:51:14.262Z,96995.84
2022-12-14T19:53:42.835Z,96996.41
2022-12-14T19:56:10.809Z,96994.97
2022-12-14T19:58:38.623Z,97000.03
2022-12-14T20:01:10.838Z,97004.53
2022-12-14T20:03:39.050Z,96994.41
2022-12-14T20:06:07.224Z,96997.50
2022-12-14T20:08:35.442Z,97000.78
2022-12-14T20:11:08.022Z,97012.91
2022-12-14T20:13:35.816Z,97004.69
2022-12-14T20:16:03.384Z,97008.31
2022-12-14T20:18:32.082Z,97006.97
2022-12-14T20:21:08.250Z,97015.75
2022-12-14T20:23:37.147Z,97015.31
2022-12-14T20:26:11.308Z,97026.00
2022-12-14T20:28:38.731Z,97023.84
2022-12-14T20:31:07.973Z,97022.50
2022-12-14T20:33:35.892Z,97020.69
2022-12-14T20:36:03.727Z,97019.41
2022-12-14T20:38:31.177Z,97027.78
2022-12-14T20:41:04.953Z,97032.03
2022-12-14T20:43:41.085Z,97036.44
2022-12-14T20:46:26.305Z,97040.88
2022-12-14T20:48:54.344Z,97043.16
2022-12-14T20:51:21.861Z,97039.31
2022-12-14T20:53:49.538Z,97041.91
2022-12-14T20:56:16.923Z,97038.97
2022-12-14T20:58:48.283Z,97022.31
2022-12-14T21:01:16.936Z,97035.38
2022-12-14T21:03:46.837Z,97026.94
2022-12-14T21:06:16.771Z,97026.41
2022-12-14T21:09:05.375Z,97017.72
2022-12-14T21:11:52.917Z,97029.91
2022-12-14T21:14:21.522Z,97026.25
2022-12-14T21:16:49.063Z,97033.25
2022-12-14T21:19:16.745Z,97042.91
2022-12-14T21:21:49.711Z,97045.91
2022-12-14T21:24:37.380Z,97035.88
2022-12-14T21:27:08.627Z,97039.50
2022-12-14T21:29:36.013Z,97047.03
2022-12-14T21:32:04.352Z,97043.03
2022-12-14T21:34:32.773Z,97044.28
2022-12-14T21:37:00.332Z,97044.22
2022-12-14T21:39:27.648Z,97046.09
2022-12-14T21:42:13.971Z,97048.63
2022-12-14T21:44:46.386Z,97055.53
2022-12-14T21:47:26.092Z,97055.59
2022-12-14T21:49:53.683Z,97051.69
2022-12-14T21:52:23.445Z,97046.91
2022-12-14T21:54:51.015Z,97043.91
2022-12-14T21:57:40.243Z,97047.97
2022-12-14T22:00:09.462Z,97047.31
2022-12-14T22:02:40.268Z,97046.97
2022-12-14T22:05:08.160Z,97047.75
2022-12-14T22:07:36.346Z,97053.84
2022-12-14T22:10:03.888Z,97057.34
2022-12-14T22:12:31.441Z,97061.06
2022-12-14T22:14:58.824Z,97069.38
2022-12-14T22:17:26.255Z,97069.06
2022-12-14T22:19:55.159Z,97065.72
2022-12-14T22:22:22.880Z,97066.78
2022-12-14T22:24:51.229Z,97067.56
2022-12-14T22:27:19.357Z,97075.72
2022-12-14T22:29:46.720Z,97077.78
2022-12-14T22:32:14.768Z,97069.38
2022-12-14T22:34:42.317Z,97075.31
2022-12-14T22:37:09.661Z,97069.19
2022-12-14T22:39:36.621Z,97068.34
2022-12-14T22:42:03.629Z,97063.50
2022-12-14T22:44:30.595Z,97066.94
2022-12-14T22:46:57.786Z,97056.69
2022-12-14T22:49:24.876Z,97058.75
2022-12-14T22:51:51.861Z,97054.63
2022-12-14T22:54:25.396Z,97057.59
2022-12-14T22:57:10.471Z,97055.88
2022-12-14T22:59:44.166Z,97057.19
2022-12-14T23:02:11.416Z,97064.88
2022-12-14T23:04:38.963Z,97067.06
2022-12-14T23:07:06.373Z,97074.84
2022-12-14T23:09:52.165Z,97073.25
2022-12-14T23:12:38.028Z,97086.09
2022-12-14T23:15:24.395Z,97088.66
2022-12-14T23:18:16.332Z,97089.16
2022-12-14T23:21:01.605Z,97088.66
2022-12-14T23:23:47.221Z,97095.97
2022-12-14T23:26:32.845Z,97089.34
2022-12-14T23:29:18.739Z,97102.44
2022-12-14T23:32:04.129Z,97100.91
2022-12-14T23:34:49.593Z,97095.03
2022-12-14T23:37:35.181Z,97105.63
2022-12-14T23:40:20.829Z,97101.06
2022-12-14T23:43:06.177Z,97100.69
2022-12-14T23:45:51.465Z,97089.28
2022-12-14T23:48:36.809Z,97079.50
2022-12-14T23:51:22.520Z,97088.66
2022-12-14T23:54:08.114Z,97088.84
2022-12-14T23:56:54.476Z,97084.38
2022-12-14T23:59:39.740Z,97086.97
